sensor_id;sensor_type;location;lat;lon;timestamp;P1;durP1;ratioP1;P2;durP2;ratioP2
74541;SDS011;63015;45.378;20.360;2022-12-10T00:00:12;12.13;;;5.63;;
74541;SDS011;63015;45.378;20.360;2022-12-10T00:02:13;11.90;;;4.97;;
74541;SDS011;63015;45.378;20.360;2022-12-10T00:04:14;12.10;;;5.15;;
74541;SDS011;63015;45.378;20.360;2022-12-10T00:06:16;16.58;;;6.03;;
74541;SDS011;63015;45.378;20.360;2022-12-10T00:08:19;12.43;;;5.85;;
74541;SDS011;63015;45.378;20.360;2022-12-10T00:10:20;13.35;;;5.43;;
74541;SDS011;63015;45.378;20.360;2022-12-10T00:12:20;11.20;;;5.05;;
74541;SDS011;63015;45.378;20.360;2022-12-10T00:14:21;14.88;;;6.82;;
74541;SDS011;63015;45.378;20.360;2022-12-10T00:16:23;16.02;;;6.28;;
74541;SDS011;63015;45.378;20.360;2022-12-10T00:18:24;17.70;;;5.53;;
74541;SDS011;63015;45.378;20.360;2022-12-10T00:20:25;16.05;;;6.13;;
74541;SDS011;63015;45.378;20.360;2022-12-10T00:22:25;11.70;;;5.22;;
74541;SDS011;63015;45.378;20.360;2022-12-10T00:24:26;13.65;;;5.80;;
74541;SDS011;63015;45.378;20.360;2022-12-10T00:26:28;13.52;;;4.97;;
74541;SDS011;63015;45.378;20.360;2022-12-10T00:28:31;10.65;;;4.22;;
74541;SDS011;63015;45.378;20.360;2022-12-10T00:30:33;17.20;;;5.85;;
74541;SDS011;63015;45.378;20.360;2022-12-10T00:32:34;13.30;;;6.03;;
74541;SDS011;63015;45.378;20.360;2022-12-10T00:34:34;12.05;;;5.32;;
74541;SDS011;63015;45.378;20.360;2022-12-10T00:36:40;13.63;;;5.50;;
74541;SDS011;63015;45.378;20.360;2022-12-10T00:38:46;15.98;;;6.03;;
74541;SDS011;63015;45.378;20.360;2022-12-10T00:40:47;20.52;;;6.53;;
74541;SDS011;63015;45.378;20.360;2022-12-10T00:42:47;15.45;;;6.35;;
74541;SDS011;63015;45.378;20.360;2022-12-10T00:44:48;16.02;;;7.13;;
74541;SDS011;63015;45.378;20.360;2022-12-10T00:46:48;17.98;;;6.97;;
74541;SDS011;63015;45.378;20.360;2022-12-10T00:48:49;16.17;;;7.72;;
74541;SDS011;63015;45.378;20.360;2022-12-10T00:50:56;17.70;;;6.35;;
74541;SDS011;63015;45.378;20.360;2022-12-10T00:52:57;17.30;;;7.95;;
74541;SDS011;63015;45.378;20.360;2022-12-10T00:54:58;17.75;;;6.72;;
74541;SDS011;63015;45.378;20.360;2022-12-10T00:56:58;12.63;;;7.07;;
74541;SDS011;63015;45.378;20.360;2022-12-10T00:58:59;16.70;;;7.20;;
74541;SDS011;63015;45.378;20.360;2022-12-10T01:03:20;16.45;;;6.72;;
74541;SDS011;63015;45.378;20.360;2022-12-10T01:05:20;18.48;;;6.78;;
74541;SDS011;63015;45.378;20.360;2022-12-10T01:07:21;14.90;;;7.20;;
74541;SDS011;63015;45.378;20.360;2022-12-10T01:09:23;16.30;;;6.90;;
74541;SDS011;63015;45.378;20.360;2022-12-10T01:11:31;16.65;;;7.50;;
74541;SDS011;63015;45.378;20.360;2022-12-10T01:13:33;14.85;;;7.38;;
74541;SDS011;63015;45.378;20.360;2022-12-10T01:15:36;17.38;;;7.35;;
74541;SDS011;63015;45.378;20.360;2022-12-10T01:17:39;14.60;;;6.82;;
74541;SDS011;63015;45.378;20.360;2022-12-10T01:19:39;13.80;;;6.40;;
74541;SDS011;63015;45.378;20.360;2022-12-10T01:21:40;17.63;;;6.97;;
74541;SDS011;63015;45.378;20.360;2022-12-10T01:23:42;14.32;;;6.55;;
74541;SDS011;63015;45.378;20.360;2022-12-10T01:25:44;12.07;;;5.47;;
74541;SDS011;63015;45.378;20.360;2022-12-10T01:27:45;15.20;;;6.28;;
74541;SDS011;63015;45.378;20.360;2022-12-10T01:29:45;15.50;;;6.68;;
74541;SDS011;63015;45.378;20.360;2022-12-10T01:31:47;20.13;;;6.75;;
74541;SDS011;63015;45.378;20.360;2022-12-10T01:33:52;12.70;;;5.80;;
74541;SDS011;63015;45.378;20.360;2022-12-10T01:35:53;11.95;;;6.18;;
74541;SDS011;63015;45.378;20.360;2022-12-10T01:37:53;15.00;;;6.10;;
74541;SDS011;63015;45.378;20.360;2022-12-10T01:39:54;12.43;;;5.82;;
74541;SDS011;63015;45.378;20.360;2022-12-10T01:41:56;14.68;;;6.50;;
74541;SDS011;63015;45.378;20.360;2022-12-10T01:46:32;14.60;;;5.90;;
74541;SDS011;63015;45.378;20.360;2022-12-10T01:48:36;13.48;;;6.05;;
74541;SDS011;63015;45.378;20.360;2022-12-10T01:50:37;15.25;;;6.22;;
74541;SDS011;63015;45.378;20.360;2022-12-10T01:52:39;10.45;;;4.32;;
74541;SDS011;63015;45.378;20.360;2022-12-10T01:54:41;13.32;;;6.43;;
74541;SDS011;63015;45.378;20.360;2022-12-10T01:56:45;14.85;;;6.68;;
74541;SDS011;63015;45.378;20.360;2022-12-10T01:58:52;14.02;;;6.07;;
74541;SDS011;63015;45.378;20.360;2022-12-10T02:03:25;14.13;;;5.80;;
74541;SDS011;63015;45.378;20.360;2022-12-10T02:05:40;9.80;;;4.75;;
74541;SDS011;63015;45.378;20.360;2022-12-10T02:07:57;14.07;;;5.45;;
74541;SDS011;63015;45.378;20.360;2022-12-10T02:12:22;13.95;;;5.88;;
74541;SDS011;63015;45.378;20.360;2022-12-10T02:14:52;12.75;;;4.43;;
74541;SDS011;63015;45.378;20.360;2022-12-10T02:16:58;13.13;;;5.10;;
74541;SDS011;63015;45.378;20.360;2022-12-10T02:19:22;15.68;;;6.72;;
74541;SDS011;63015;45.378;20.360;2022-12-10T02:21:34;11.38;;;5.60;;
74541;SDS011;63015;45.378;20.360;2022-12-10T02:23:39;14.43;;;6.25;;
74541;SDS011;63015;45.378;20.360;2022-12-10T02:25:47;13.20;;;5.97;;
74541;SDS011;63015;45.378;20.360;2022-12-10T02:27:57;17.35;;;6.13;;
74541;SDS011;63015;45.378;20.360;2022-12-10T02:30:05;11.57;;;5.15;;
74541;SDS011;63015;45.378;20.360;2022-12-10T02:32:11;16.58;;;5.85;;
74541;SDS011;63015;45.378;20.360;2022-12-10T02:34:26;15.07;;;6.00;;
74541;SDS011;63015;45.378;20.360;2022-12-10T02:36:32;16.58;;;5.55;;
74541;SDS011;63015;45.378;20.360;2022-12-10T02:38:36;15.63;;;5.72;;
74541;SDS011;63015;45.378;20.360;2022-12-10T02:40:38;14.57;;;5.65;;
74541;SDS011;63015;45.378;20.360;2022-12-10T02:42:44;15.23;;;6.43;;
74541;SDS011;63015;45.378;20.360;2022-12-10T02:44:48;16.83;;;6.57;;
74541;SDS011;63015;45.378;20.360;2022-12-10T02:46:55;15.88;;;6.88;;
74541;SDS011;63015;45.378;20.360;2022-12-10T02:49:02;18.45;;;7.28;;
74541;SDS011;63015;45.378;20.360;2022-12-10T02:51:08;19.63;;;6.32;;
74541;SDS011;63015;45.378;20.360;2022-12-10T02:53:11;13.27;;;6.40;;
74541;SDS011;63015;45.378;20.360;2022-12-10T02:55:12;15.65;;;6.10;;
74541;SDS011;63015;45.378;20.360;2022-12-10T02:57:27;13.20;;;6.10;;
74541;SDS011;63015;45.378;20.360;2022-12-10T02:59:54;11.00;;;5.63;;
74541;SDS011;63015;45.378;20.360;2022-12-10T03:02:19;12.13;;;5.68;;
74541;SDS011;63015;45.378;20.360;2022-12-10T03:04:46;16.75;;;6.15;;
74541;SDS011;63015;45.378;20.360;2022-12-10T03:06:55;15.30;;;5.93;;
74541;SDS011;63015;45.378;20.360;2022-12-10T03:09:06;10.38;;;5.30;;
74541;SDS011;63015;45.378;20.360;2022-12-10T03:11:13;14.82;;;5.78;;
74541;SDS011;63015;45.378;20.360;2022-12-10T03:13:20;14.85;;;5.88;;
74541;SDS011;63015;45.378;20.360;2022-12-10T03:15:26;15.55;;;6.55;;
74541;SDS011;63015;45.378;20.360;2022-12-10T03:17:30;11.13;;;5.15;;
74541;SDS011;63015;45.378;20.360;2022-12-10T03:21:37;17.95;;;7.85;;
74541;SDS011;63015;45.378;20.360;2022-12-10T03:23:41;21.13;;;7.10;;
74541;SDS011;63015;45.378;20.360;2022-12-10T03:25:46;9.70;;;5.07;;
74541;SDS011;63015;45.378;20.360;2022-12-10T03:27:49;10.77;;;4.38;;
74541;SDS011;63015;45.378;20.360;2022-12-10T03:29:54;14.65;;;6.75;;
74541;SDS011;63015;45.378;20.360;2022-12-10T03:31:57;13.90;;;5.82;;
74541;SDS011;63015;45.378;20.360;2022-12-10T03:33:59;14.15;;;5.78;;
74541;SDS011;63015;45.378;20.360;2022-12-10T03:36:01;14.98;;;5.95;;
74541;SDS011;63015;45.378;20.360;2022-12-10T03:38:04;16.42;;;6.57;;
74541;SDS011;63015;45.378;20.360;2022-12-10T03:40:06;13.85;;;5.57;;
74541;SDS011;63015;45.378;20.360;2022-12-10T03:42:08;15.43;;;6.03;;
74541;SDS011;63015;45.378;20.360;2022-12-10T03:44:09;15.02;;;5.13;;
74541;SDS011;63015;45.378;20.360;2022-12-10T03:46:10;13.20;;;5.15;;
74541;SDS011;63015;45.378;20.360;2022-12-10T03:48:10;18.58;;;5.57;;
74541;SDS011;63015;45.378;20.360;2022-12-10T03:50:11;16.33;;;4.85;;
74541;SDS011;63015;45.378;20.360;2022-12-10T03:52:12;12.90;;;5.80;;
74541;SDS011;63015;45.378;20.360;2022-12-10T03:54:12;12.20;;;5.63;;
74541;SDS011;63015;45.378;20.360;2022-12-10T03:56:13;11.20;;;4.90;;
74541;SDS011;63015;45.378;20.360;2022-12-10T03:58:13;13.68;;;5.25;;
74541;SDS011;63015;45.378;20.360;2022-12-10T04:00:14;10.80;;;5.30;;
74541;SDS011;63015;45.378;20.360;2022-12-10T04:02:15;17.58;;;4.72;;
74541;SDS011;63015;45.378;20.360;2022-12-10T04:04:15;10.13;;;5.03;;
74541;SDS011;63015;45.378;20.360;2022-12-10T04:06:17;11.63;;;4.78;;
74541;SDS011;63015;45.378;20.360;2022-12-10T04:08:19;15.30;;;5.05;;
74541;SDS011;63015;45.378;20.360;2022-12-10T04:10:19;17.17;;;5.93;;
74541;SDS011;63015;45.378;20.360;2022-12-10T04:12:20;13.48;;;5.10;;
74541;SDS011;63015;45.378;20.360;2022-12-10T04:14:20;11.50;;;5.05;;
74541;SDS011;63015;45.378;20.360;2022-12-10T04:16:40;12.68;;;4.70;;
74541;SDS011;63015;45.378;20.360;2022-12-10T04:18:40;12.82;;;4.95;;
74541;SDS011;63015;45.378;20.360;2022-12-10T04:20:41;11.90;;;5.20;;
74541;SDS011;63015;45.378;20.360;2022-12-10T04:23:01;12.27;;;4.75;;
74541;SDS011;63015;45.378;20.360;2022-12-10T04:25:20;15.43;;;4.40;;
74541;SDS011;63015;45.378;20.360;2022-12-10T04:27:39;11.20;;;4.28;;
74541;SDS011;63015;45.378;20.360;2022-12-10T04:29:40;13.07;;;5.30;;
74541;SDS011;63015;45.378;20.360;2022-12-10T04:31:41;13.35;;;5.25;;
74541;SDS011;63015;45.378;20.360;2022-12-10T04:33:42;13.85;;;5.40;;
74541;SDS011;63015;45.378;20.360;2022-12-10T04:35:42;14.02;;;5.22;;
74541;SDS011;63015;45.378;20.360;2022-12-10T04:37:43;20.67;;;5.40;;
74541;SDS011;63015;45.378;20.360;2022-12-10T04:39:44;14.45;;;5.65;;
74541;SDS011;63015;45.378;20.360;2022-12-10T04:41:46;11.70;;;4.82;;
74541;SDS011;63015;45.378;20.360;2022-12-10T04:43:48;9.55;;;4.53;;
74541;SDS011;63015;45.378;20.360;2022-12-10T04:45:48;13.55;;;4.60;;
74541;SDS011;63015;45.378;20.360;2022-12-10T04:47:49;12.88;;;5.15;;
74541;SDS011;63015;45.378;20.360;2022-12-10T04:49:50;12.52;;;5.80;;
74541;SDS011;63015;45.378;20.360;2022-12-10T04:51:51;9.50;;;4.47;;
74541;SDS011;63015;45.378;20.360;2022-12-10T04:53:53;15.05;;;5.00;;
74541;SDS011;63015;45.378;20.360;2022-12-10T04:55:53;11.35;;;4.50;;
74541;SDS011;63015;45.378;20.360;2022-12-10T04:57:54;14.07;;;4.82;;
74541;SDS011;63015;45.378;20.360;2022-12-10T04:59:54;10.93;;;4.82;;
74541;SDS011;63015;45.378;20.360;2022-12-10T05:01:55;8.73;;;3.90;;
74541;SDS011;63015;45.378;20.360;2022-12-10T05:03:58;17.73;;;5.25;;
74541;SDS011;63015;45.378;20.360;2022-12-10T05:06:00;7.35;;;3.17;;
74541;SDS011;63015;45.378;20.360;2022-12-10T05:08:11;14.57;;;4.60;;
74541;SDS011;63015;45.378;20.360;2022-12-10T05:10:12;11.50;;;4.13;;
74541;SDS011;63015;45.378;20.360;2022-12-10T05:12:12;10.32;;;3.00;;
74541;SDS011;63015;45.378;20.360;2022-12-10T05:14:14;10.20;;;3.78;;
74541;SDS011;63015;45.378;20.360;2022-12-10T05:16:16;11.80;;;4.13;;
74541;SDS011;63015;45.378;20.360;2022-12-10T05:20:19;11.95;;;4.28;;
74541;SDS011;63015;45.378;20.360;2022-12-10T05:22:20;12.93;;;3.72;;
74541;SDS011;63015;45.378;20.360;2022-12-10T05:24:39;11.40;;;5.03;;
74541;SDS011;63015;45.378;20.360;2022-12-10T05:26:40;14.35;;;4.00;;
74541;SDS011;63015;45.378;20.360;2022-12-10T05:28:51;13.82;;;4.03;;
74541;SDS011;63015;45.378;20.360;2022-12-10T05:30:55;12.10;;;4.35;;
74541;SDS011;63015;45.378;20.360;2022-12-10T05:32:56;11.18;;;4.43;;
74541;SDS011;63015;45.378;20.360;2022-12-10T05:34:56;10.80;;;4.75;;
74541;SDS011;63015;45.378;20.360;2022-12-10T05:36:57;12.27;;;4.65;;
74541;SDS011;63015;45.378;20.360;2022-12-10T05:38:58;10.38;;;4.45;;
74541;SDS011;63015;45.378;20.360;2022-12-10T05:41:03;10.77;;;4.57;;
74541;SDS011;63015;45.378;20.360;2022-12-10T05:43:14;12.85;;;4.22;;
74541;SDS011;63015;45.378;20.360;2022-12-10T05:45:15;13.05;;;4.53;;
74541;SDS011;63015;45.378;20.360;2022-12-10T05:47:15;14.98;;;4.60;;
74541;SDS011;63015;45.378;20.360;2022-12-10T05:49:16;9.77;;;4.22;;
74541;SDS011;63015;45.378;20.360;2022-12-10T05:51:21;14.70;;;4.40;;
74541;SDS011;63015;45.378;20.360;2022-12-10T05:53:23;13.00;;;4.88;;
74541;SDS011;63015;45.378;20.360;2022-12-10T05:55:24;11.52;;;5.20;;
74541;SDS011;63015;45.378;20.360;2022-12-10T05:57:26;11.43;;;4.82;;
74541;SDS011;63015;45.378;20.360;2022-12-10T05:59:27;15.00;;;5.25;;
74541;SDS011;63015;45.378;20.360;2022-12-10T06:01:30;14.68;;;5.25;;
74541;SDS011;63015;45.378;20.360;2022-12-10T06:03:34;12.32;;;4.97;;
74541;SDS011;63015;45.378;20.360;2022-12-10T06:05:38;11.07;;;4.32;;
74541;SDS011;63015;45.378;20.360;2022-12-10T06:07:40;11.52;;;3.95;;
74541;SDS011;63015;45.378;20.360;2022-12-10T06:09:40;11.55;;;4.30;;
74541;SDS011;63015;45.378;20.360;2022-12-10T06:11:41;10.27;;;4.00;;
74541;SDS011;63015;45.378;20.360;2022-12-10T06:13:42;7.25;;;3.42;;
74541;SDS011;63015;45.378;20.360;2022-12-10T06:15:43;10.85;;;3.83;;
74541;SDS011;63015;45.378;20.360;2022-12-10T06:17:43;11.45;;;3.88;;
74541;SDS011;63015;45.378;20.360;2022-12-10T06:19:44;12.23;;;4.07;;
74541;SDS011;63015;45.378;20.360;2022-12-10T06:21:45;9.65;;;3.92;;
74541;SDS011;63015;45.378;20.360;2022-12-10T06:23:46;10.43;;;3.80;;
74541;SDS011;63015;45.378;20.360;2022-12-10T06:25:48;9.40;;;4.03;;
74541;SDS011;63015;45.378;20.360;2022-12-10T06:27:48;11.45;;;3.60;;
74541;SDS011;63015;45.378;20.360;2022-12-10T06:29:49;11.15;;;4.30;;
74541;SDS011;63015;45.378;20.360;2022-12-10T06:31:49;15.00;;;5.20;;
74541;SDS011;63015;45.378;20.360;2022-12-10T06:33:50;28.63;;;8.98;;
74541;SDS011;63015;45.378;20.360;2022-12-10T06:35:51;20.92;;;9.10;;
74541;SDS011;63015;45.378;20.360;2022-12-10T06:37:52;26.42;;;9.98;;
74541;SDS011;63015;45.378;20.360;2022-12-10T06:39:53;16.63;;;5.70;;
74541;SDS011;63015;45.378;20.360;2022-12-10T06:41:53;11.98;;;4.65;;
74541;SDS011;63015;45.378;20.360;2022-12-10T06:43:54;11.07;;;3.72;;
74541;SDS011;63015;45.378;20.360;2022-12-10T06:45:58;11.95;;;4.10;;
74541;SDS011;63015;45.378;20.360;2022-12-10T06:47:59;11.50;;;3.95;;
74541;SDS011;63015;45.378;20.360;2022-12-10T06:50:00;14.45;;;4.45;;
74541;SDS011;63015;45.378;20.360;2022-12-10T06:52:00;13.25;;;3.78;;
74541;SDS011;63015;45.378;20.360;2022-12-10T06:54:01;10.73;;;3.90;;
74541;SDS011;63015;45.378;20.360;2022-12-10T06:56:02;10.07;;;4.35;;
74541;SDS011;63015;45.378;20.360;2022-12-10T06:58:04;15.45;;;4.07;;
74541;SDS011;63015;45.378;20.360;2022-12-10T07:00:05;8.88;;;4.47;;
74541;SDS011;63015;45.378;20.360;2022-12-10T07:02:07;14.70;;;4.93;;
74541;SDS011;63015;45.378;20.360;2022-12-10T07:04:09;13.93;;;4.97;;
74541;SDS011;63015;45.378;20.360;2022-12-10T07:06:10;12.68;;;5.07;;
74541;SDS011;63015;45.378;20.360;2022-12-10T07:08:11;12.73;;;4.57;;
74541;SDS011;63015;45.378;20.360;2022-12-10T07:10:12;12.95;;;5.18;;
74541;SDS011;63015;45.378;20.360;2022-12-10T07:12:13;13.57;;;5.28;;
74541;SDS011;63015;45.378;20.360;2022-12-10T07:14:14;14.18;;;5.72;;
74541;SDS011;63015;45.378;20.360;2022-12-10T07:16:17;13.85;;;5.60;;
74541;SDS011;63015;45.378;20.360;2022-12-10T07:18:20;20.48;;;5.88;;
74541;SDS011;63015;45.378;20.360;2022-12-10T07:20:21;16.58;;;6.28;;
74541;SDS011;63015;45.378;20.360;2022-12-10T07:22:22;15.60;;;6.03;;
74541;SDS011;63015;45.378;20.360;2022-12-10T07:24:22;16.90;;;7.65;;
74541;SDS011;63015;45.378;20.360;2022-12-10T07:26:23;22.10;;;9.07;;
74541;SDS011;63015;45.378;20.360;2022-12-10T07:28:25;18.85;;;6.00;;
74541;SDS011;63015;45.378;20.360;2022-12-10T07:30:25;16.80;;;5.95;;
74541;SDS011;63015;45.378;20.360;2022-12-10T07:32:26;13.02;;;5.25;;
74541;SDS011;63015;45.378;20.360;2022-12-10T07:34:27;15.27;;;6.10;;
74541;SDS011;63015;45.378;20.360;2022-12-10T07:36:28;16.27;;;6.50;;
74541;SDS011;63015;45.378;20.360;2022-12-10T07:38:29;16.13;;;7.22;;
74541;SDS011;63015;45.378;20.360;2022-12-10T07:40:29;18.30;;;7.93;;
74541;SDS011;63015;45.378;20.360;2022-12-10T07:42:30;21.98;;;9.15;;
74541;SDS011;63015;45.378;20.360;2022-12-10T07:44:30;14.95;;;8.15;;
74541;SDS011;63015;45.378;20.360;2022-12-10T07:46:31;20.38;;;8.23;;
74541;SDS011;63015;45.378;20.360;2022-12-10T07:48:36;20.98;;;7.47;;
74541;SDS011;63015;45.378;20.360;2022-12-10T07:50:38;19.63;;;7.40;;
74541;SDS011;63015;45.378;20.360;2022-12-10T07:52:39;16.52;;;6.53;;
74541;SDS011;63015;45.378;20.360;2022-12-10T07:54:40;18.73;;;7.05;;
74541;SDS011;63015;45.378;20.360;2022-12-10T07:56:41;22.25;;;7.40;;
74541;SDS011;63015;45.378;20.360;2022-12-10T07:58:42;17.23;;;7.93;;
74541;SDS011;63015;45.378;20.360;2022-12-10T08:00:44;16.45;;;7.07;;
74541;SDS011;63015;45.378;20.360;2022-12-10T08:02:45;15.52;;;7.18;;
74541;SDS011;63015;45.378;20.360;2022-12-10T08:04:45;19.67;;;8.68;;
74541;SDS011;63015;45.378;20.360;2022-12-10T08:06:46;18.45;;;8.05;;
74541;SDS011;63015;45.378;20.360;2022-12-10T08:08:48;23.75;;;8.68;;
74541;SDS011;63015;45.378;20.360;2022-12-10T08:10:49;23.17;;;8.20;;
74541;SDS011;63015;45.378;20.360;2022-12-10T08:12:49;19.10;;;8.60;;
74541;SDS011;63015;45.378;20.360;2022-12-10T08:14:50;20.05;;;8.90;;
74541;SDS011;63015;45.378;20.360;2022-12-10T08:16:50;20.83;;;9.15;;
74541;SDS011;63015;45.378;20.360;2022-12-10T08:18:51;32.50;;;14.80;;
74541;SDS011;63015;45.378;20.360;2022-12-10T08:20:52;28.58;;;12.90;;
74541;SDS011;63015;45.378;20.360;2022-12-10T08:22:53;36.55;;;17.25;;
74541;SDS011;63015;45.378;20.360;2022-12-10T08:24:54;37.40;;;18.38;;
74541;SDS011;63015;45.378;20.360;2022-12-10T08:26:54;42.05;;;18.08;;
74541;SDS011;63015;45.378;20.360;2022-12-10T08:28:56;42.75;;;20.30;;
74541;SDS011;63015;45.378;20.360;2022-12-10T08:30:57;41.28;;;20.67;;
74541;SDS011;63015;45.378;20.360;2022-12-10T08:32:57;51.92;;;24.65;;
74541;SDS011;63015;45.378;20.360;2022-12-10T08:34:58;46.28;;;22.70;;
74541;SDS011;63015;45.378;20.360;2022-12-10T08:37:00;45.17;;;23.27;;
74541;SDS011;63015;45.378;20.360;2022-12-10T08:39:00;41.33;;;20.85;;
74541;SDS011;63015;45.378;20.360;2022-12-10T08:43:11;35.25;;;18.55;;
74541;SDS011;63015;45.378;20.360;2022-12-10T08:45:11;31.40;;;16.60;;
74541;SDS011;63015;45.378;20.360;2022-12-10T08:47:12;30.83;;;17.13;;
74541;SDS011;63015;45.378;20.360;2022-12-10T08:49:12;32.90;;;16.52;;
74541;SDS011;63015;45.378;20.360;2022-12-10T08:51:14;37.25;;;17.70;;
74541;SDS011;63015;45.378;20.360;2022-12-10T08:53:16;37.78;;;18.63;;
74541;SDS011;63015;45.378;20.360;2022-12-10T08:55:17;38.50;;;18.67;;
74541;SDS011;63015;45.378;20.360;2022-12-10T08:57:18;56.35;;;25.65;;
74541;SDS011;63015;45.378;20.360;2022-12-10T08:59:18;86.88;;;37.92;;
74541;SDS011;63015;45.378;20.360;2022-12-10T09:01:19;72.30;;;34.00;;
74541;SDS011;63015;45.378;20.360;2022-12-10T09:03:20;69.72;;;35.08;;
74541;SDS011;63015;45.378;20.360;2022-12-10T09:05:20;72.75;;;39.58;;
74541;SDS011;63015;45.378;20.360;2022-12-10T09:07:21;96.10;;;50.85;;
74541;SDS011;63015;45.378;20.360;2022-12-10T09:09:22;76.97;;;38.78;;
74541;SDS011;63015;45.378;20.360;2022-12-10T09:11:23;76.65;;;38.33;;
74541;SDS011;63015;45.378;20.360;2022-12-10T09:13:26;77.03;;;37.38;;
74541;SDS011;63015;45.378;20.360;2022-12-10T09:15:26;73.18;;;33.53;;
74541;SDS011;63015;45.378;20.360;2022-12-10T09:17:27;65.10;;;30.38;;
74541;SDS011;63015;45.378;20.360;2022-12-10T09:19:27;66.90;;;31.05;;
74541;SDS011;63015;45.378;20.360;2022-12-10T09:21:28;60.38;;;28.75;;
74541;SDS011;63015;45.378;20.360;2022-12-10T09:23:30;64.57;;;30.45;;
74541;SDS011;63015;45.378;20.360;2022-12-10T09:25:31;69.82;;;32.55;;
74541;SDS011;63015;45.378;20.360;2022-12-10T09:27:31;89.93;;;37.90;;
74541;SDS011;63015;45.378;20.360;2022-12-10T09:29:32;65.05;;;27.73;;
74541;SDS011;63015;45.378;20.360;2022-12-10T09:31:33;66.93;;;30.65;;
74541;SDS011;63015;45.378;20.360;2022-12-10T09:33:34;57.38;;;25.50;;
74541;SDS011;63015;45.378;20.360;2022-12-10T09:35:39;46.13;;;23.38;;
74541;SDS011;63015;45.378;20.360;2022-12-10T09:37:40;45.55;;;21.27;;
74541;SDS011;63015;45.378;20.360;2022-12-10T09:39:41;41.28;;;18.63;;
74541;SDS011;63015;45.378;20.360;2022-12-10T09:43:56;33.45;;;14.38;;
74541;SDS011;63015;45.378;20.360;2022-12-10T09:46:10;21.67;;;10.85;;
74541;SDS011;63015;45.378;20.360;2022-12-10T09:48:20;26.67;;;11.70;;
74541;SDS011;63015;45.378;20.360;2022-12-10T09:52:35;27.80;;;11.25;;
74541;SDS011;63015;45.378;20.360;2022-12-10T09:54:41;28.52;;;13.88;;
74541;SDS011;63015;45.378;20.360;2022-12-10T09:56:45;31.48;;;16.83;;
74541;SDS011;63015;45.378;20.360;2022-12-10T09:58:46;31.23;;;16.02;;
74541;SDS011;63015;45.378;20.360;2022-12-10T10:00:47;32.67;;;14.25;;
74541;SDS011;63015;45.378;20.360;2022-12-10T10:02:53;38.28;;;24.02;;
74541;SDS011;63015;45.378;20.360;2022-12-10T10:05:19;44.42;;;26.55;;
74541;SDS011;63015;45.378;20.360;2022-12-10T10:07:22;35.00;;;18.45;;
74541;SDS011;63015;45.378;20.360;2022-12-10T10:09:24;32.30;;;17.70;;
74541;SDS011;63015;45.378;20.360;2022-12-10T10:11:30;37.42;;;18.52;;
74541;SDS011;63015;45.378;20.360;2022-12-10T10:13:34;33.08;;;17.45;;
74541;SDS011;63015;45.378;20.360;2022-12-10T10:15:40;32.90;;;18.00;;
74541;SDS011;63015;45.378;20.360;2022-12-10T10:19:47;34.00;;;16.27;;
74541;SDS011;63015;45.378;20.360;2022-12-10T10:21:50;39.10;;;16.95;;
74541;SDS011;63015;45.378;20.360;2022-12-10T10:23:51;38.45;;;17.23;;
74541;SDS011;63015;45.378;20.360;2022-12-10T10:25:52;93.78;;;38.67;;
74541;SDS011;63015;45.378;20.360;2022-12-10T10:27:53;40.28;;;19.25;;
74541;SDS011;63015;45.378;20.360;2022-12-10T10:29:55;41.25;;;20.55;;
74541;SDS011;63015;45.378;20.360;2022-12-10T10:32:15;37.58;;;19.75;;
74541;SDS011;63015;45.378;20.360;2022-12-10T10:34:20;41.50;;;17.33;;
74541;SDS011;63015;45.378;20.360;2022-12-10T10:36:27;48.88;;;22.40;;
74541;SDS011;63015;45.378;20.360;2022-12-10T10:38:29;36.38;;;17.17;;
74541;SDS011;63015;45.378;20.360;2022-12-10T10:40:32;69.32;;;29.38;;
74541;SDS011;63015;45.378;20.360;2022-12-10T10:42:40;40.38;;;19.63;;
74541;SDS011;63015;45.378;20.360;2022-12-10T10:44:43;28.45;;;12.95;;
74541;SDS011;63015;45.378;20.360;2022-12-10T10:46:44;28.98;;;12.90;;
74541;SDS011;63015;45.378;20.360;2022-12-10T10:48:47;26.52;;;11.73;;
74541;SDS011;63015;45.378;20.360;2022-12-10T10:55:31;30.30;;;11.48;;
74541;SDS011;63015;45.378;20.360;2022-12-10T10:57:36;29.95;;;10.55;;
74541;SDS011;63015;45.378;20.360;2022-12-10T10:59:37;27.83;;;11.20;;
74541;SDS011;63015;45.378;20.360;2022-12-10T11:03:49;23.48;;;11.05;;
74541;SDS011;63015;45.378;20.360;2022-12-10T11:05:53;23.52;;;12.23;;
74541;SDS011;63015;45.378;20.360;2022-12-10T11:07:56;25.27;;;12.35;;
74541;SDS011;63015;45.378;20.360;2022-12-10T11:09:58;23.92;;;9.93;;
74541;SDS011;63015;45.378;20.360;2022-12-10T11:12:02;20.88;;;10.18;;
74541;SDS011;63015;45.378;20.360;2022-12-10T11:14:15;18.77;;;9.00;;
74541;SDS011;63015;45.378;20.360;2022-12-10T11:16:30;16.88;;;6.70;;
74541;SDS011;63015;45.378;20.360;2022-12-10T11:21:18;15.00;;;7.22;;
74541;SDS011;63015;45.378;20.360;2022-12-10T11:23:21;14.38;;;7.15;;
74541;SDS011;63015;45.378;20.360;2022-12-10T11:25:46;12.90;;;5.95;;
74541;SDS011;63015;45.378;20.360;2022-12-10T11:28:06;17.98;;;6.43;;
74541;SDS011;63015;45.378;20.360;2022-12-10T11:30:21;11.52;;;5.43;;
74541;SDS011;63015;45.378;20.360;2022-12-10T11:37:38;15.50;;;5.65;;
74541;SDS011;63015;45.378;20.360;2022-12-10T11:41:56;12.50;;;5.15;;
74541;SDS011;63015;45.378;20.360;2022-12-10T11:46:30;14.90;;;6.07;;
74541;SDS011;63015;45.378;20.360;2022-12-10T11:51:21;23.95;;;8.75;;
74541;SDS011;63015;45.378;20.360;2022-12-10T11:53:32;26.63;;;12.02;;
74541;SDS011;63015;45.378;20.360;2022-12-10T11:57:54;22.33;;;9.05;;
74541;SDS011;63015;45.378;20.360;2022-12-10T12:00:24;18.13;;;6.90;;
74541;SDS011;63015;45.378;20.360;2022-12-10T12:07:16;20.27;;;9.57;;
74541;SDS011;63015;45.378;20.360;2022-12-10T12:09:34;29.85;;;14.15;;
74541;SDS011;63015;45.378;20.360;2022-12-10T12:12:21;24.65;;;11.13;;
74541;SDS011;63015;45.378;20.360;2022-12-10T12:14:51;15.30;;;6.95;;
74541;SDS011;63015;45.378;20.360;2022-12-10T12:17:34;20.75;;;11.00;;
74541;SDS011;63015;45.378;20.360;2022-12-10T12:19:43;18.75;;;7.93;;
74541;SDS011;63015;45.378;20.360;2022-12-10T12:22:25;26.13;;;11.95;;
74541;SDS011;63015;45.378;20.360;2022-12-10T12:24:36;33.75;;;15.55;;
74541;SDS011;63015;45.378;20.360;2022-12-10T12:27:00;32.50;;;14.63;;
74541;SDS011;63015;45.378;20.360;2022-12-10T12:29:30;18.13;;;8.50;;
74541;SDS011;63015;45.378;20.360;2022-12-10T12:31:37;22.33;;;12.43;;
74541;SDS011;63015;45.378;20.360;2022-12-10T12:33:49;26.55;;;12.90;;
74541;SDS011;63015;45.378;20.360;2022-12-10T12:35:58;25.52;;;12.30;;
74541;SDS011;63015;45.378;20.360;2022-12-10T12:40:29;21.90;;;9.88;;
74541;SDS011;63015;45.378;20.360;2022-12-10T12:45:08;28.05;;;13.48;;
74541;SDS011;63015;45.378;20.360;2022-12-10T12:51:31;24.42;;;12.10;;
74541;SDS011;63015;45.378;20.360;2022-12-10T12:53:36;29.42;;;13.50;;
74541;SDS011;63015;45.378;20.360;2022-12-10T12:57:45;26.35;;;13.65;;
74541;SDS011;63015;45.378;20.360;2022-12-10T12:59:57;20.25;;;10.15;;
74541;SDS011;63015;45.378;20.360;2022-12-10T13:04:52;14.07;;;7.13;;
74541;SDS011;63015;45.378;20.360;2022-12-10T13:09:16;22.85;;;9.85;;
74541;SDS011;63015;45.378;20.360;2022-12-10T13:11:29;15.23;;;7.07;;